createdAt,value
2023-04-20T00:02:09.259Z,96
2023-04-20T00:04:34.427Z,96.5
2023-04-20T00:06:59.567Z,96.8
2023-04-20T00:09:25.591Z,97
2023-04-20T00:11:51.674Z,97.3
2023-04-20T00:14:17.780Z,97.5
2023-04-20T00:16:43.842Z,97.5
2023-04-20T00:19:10.046Z,97.4
2023-04-20T00:21:36.061Z,97
2023-04-20T00:24:02.137Z,96.9
2023-04-20T00:26:28.235Z,97
2023-04-20T00:28:54.358Z,97.1
2023-04-20T00:31:20.414Z,97.3
2023-04-20T00:33:46.514Z,97.5
2023-04-20T00:36:12.626Z,97.5
2023-04-20T00:38:37.734Z,97
2023-04-20T00:41:03.836Z,96.9
2023-04-20T00:43:29.916Z,97
2023-04-20T00:45:56.010Z,96.8
2023-04-20T00:48:22.108Z,97.1
2023-04-20T00:50:48.200Z,97.3
2023-04-20T00:53:14.323Z,97.3
2023-04-20T00:55:39.452Z,97.7
2023-04-20T00:58:04.545Z,98
2023-04-20T01:00:29.674Z,98.3
2023-04-20T01:02:54.789Z,98
2023-04-20T01:05:20.879Z,98.2
2023-04-20T01:07:47.017Z,98.4
2023-04-20T01:10:13.069Z,98.4
2023-04-20T01:12:39.164Z,98.4
2023-04-20T01:15:05.261Z,98.2
2023-04-20T01:17:31.349Z,98.3
2023-04-20T01:19:57.463Z,98.4
2023-04-20T01:22:23.550Z,98.5
2023-04-20T01:24:49.643Z,98.6
2023-04-20T01:27:15.735Z,98.6
2023-04-20T01:29:41.847Z,98.7
2023-04-20T01:32:07.971Z,98.8
2023-04-20T01:34:33.080Z,98.7
2023-04-20T01:36:59.203Z,98.5
2023-04-20T01:39:25.310Z,98.4
2023-04-20T01:41:51.362Z,98.5
2023-04-20T01:44:17.475Z,98.5
2023-04-20T01:46:42.631Z,98.3
2023-04-20T01:49:08.709Z,98.3
2023-04-20T01:51:33.798Z,98.5
2023-04-20T01:53:59.891Z,98.9
2023-04-20T01:56:25.990Z,98.9
2023-04-20T01:58:52.075Z,98.8
2023-04-20T02:01:18.174Z,98.9
2023-04-20T02:03:43.273Z,98.7
2023-04-20T02:06:09.374Z,98.9
2023-04-20T02:08:35.458Z,98.9
2023-04-20T02:11:01.565Z,99
2023-04-20T02:13:27.668Z,99.2
2023-04-20T02:15:53.748Z,99.2
2023-04-20T02:18:19.872Z,99.2
2023-04-20T02:20:45.967Z,99.5
2023-04-20T02:23:12.074Z,99.8
2023-04-20T02:25:38.146Z,99.8
2023-04-20T02:28:04.235Z,99.8
2023-04-20T02:30:30.336Z,99.7
2023-04-20T02:32:56.426Z,99.4
2023-04-20T02:35:21.550Z,99.4
2023-04-20T02:37:47.665Z,99.2
2023-04-20T02:40:13.746Z,99.5
2023-04-20T02:42:38.853Z,99.7
2023-04-20T02:45:04.960Z,99.9
2023-04-20T02:47:31.060Z,100
2023-04-20T02:49:57.172Z,99.8
2023-04-20T02:52:23.255Z,99.8
2023-04-20T02:54:49.347Z,100
2023-04-20T02:57:15.445Z,100
2023-04-20T02:59:41.545Z,100
2023-04-20T03:02:07.651Z,100
2023-04-20T03:04:33.730Z,100
2023-04-20T03:06:59.838Z,100
2023-04-20T03:09:25.943Z,100
2023-04-20T03:11:51.066Z,100
2023-04-20T03:14:17.146Z,100
2023-04-20T03:16:43.233Z,100
2023-04-20T03:19:09.337Z,100
2023-04-20T03:21:35.435Z,100
2023-04-20T03:24:01.541Z,100
2023-04-20T03:26:27.638Z,100
2023-04-20T03:28:53.740Z,100
2023-04-20T03:31:19.833Z,100
2023-04-20T03:33:44.967Z,100
2023-04-20T03:36:11.072Z,100
2023-04-20T03:38:37.161Z,100
2023-04-20T03:41:03.253Z,100
2023-04-20T03:43:29.357Z,100
2023-04-20T03:45:55.460Z,100
2023-04-20T03:48:21.536Z,100
2023-04-20T03:50:47.641Z,100
2023-04-20T03:53:13.749Z,100
2023-04-20T03:55:38.827Z,100
2023-04-20T03:58:04.949Z,100
2023-04-20T04:00:31.043Z,100
2023-04-20T04:02:57.176Z,100
2023-04-20T04:05:23.233Z,100
2023-04-20T04:07:49.334Z,100
2023-04-20T04:10:15.437Z,100
2023-04-20T04:12:41.528Z,100
2023-04-20T04:15:07.647Z,100
2023-04-20T04:17:33.783Z,100
2023-04-20T04:19:59.839Z,100
2023-04-20T04:22:25.927Z,100
2023-04-20T04:24:51.045Z,100
2023-04-20T04:27:16.158Z,100
2023-04-20T04:29:41.294Z,100
2023-04-20T04:32:06.422Z,100
2023-04-20T04:34:31.532Z,100
2023-04-20T04:36:56.690Z,100
2023-04-20T04:39:21.782Z,100
2023-04-20T04:41:46.908Z,100
2023-04-20T04:44:12.011Z,100
2023-04-20T04:46:37.108Z,100
2023-04-20T04:49:03.219Z,100
2023-04-20T04:51:29.328Z,100
2023-04-20T04:53:55.422Z,100
2023-04-20T04:56:21.522Z,100
2023-04-20T04:58:47.597Z,100
2023-04-20T05:01:13.723Z,100
2023-04-20T05:03:39.798Z,100
2023-04-20T05:06:05.889Z,100
2023-04-20T05:08:31.998Z,100
2023-04-20T05:10:58.099Z,100
2023-04-20T05:13:24.196Z,100
2023-04-20T05:15:50.398Z,100
2023-04-20T05:18:15.395Z,100
2023-04-20T05:20:41.487Z,100
2023-04-20T05:23:07.629Z,100
2023-04-20T05:25:33.786Z,100
2023-04-20T05:27:59.843Z,100
2023-04-20T05:30:25.932Z,100
2023-04-20T05:32:52.076Z,100
2023-04-20T05:35:18.112Z,100
2023-04-20T05:37:44.187Z,100
2023-04-20T05:40:10.265Z,100
2023-04-20T05:42:36.380Z,100
2023-04-20T05:45:02.469Z,100
2023-04-20T05:47:28.593Z,100
2023-04-20T05:49:54.670Z,99.9
2023-04-20T05:52:20.770Z,99.7
2023-04-20T05:54:46.928Z,99.3
2023-04-20T05:57:13.151Z,99
2023-04-20T05:59:39.061Z,98.6
2023-04-20T06:02:05.284Z,98.3
2023-04-20T06:04:31.259Z,98.2
2023-04-20T06:06:56.372Z,97.1
2023-04-20T06:09:21.562Z,96.4
2023-04-20T06:11:46.610Z,95.9
2023-04-20T06:16:37.836Z,95
2023-04-20T06:19:03.899Z,94.7
2023-04-20T06:21:30.009Z,94.5
2023-04-20T06:23:56.140Z,94.7
2023-04-20T06:26:22.227Z,94.7
2023-04-20T06:28:48.340Z,94.4
2023-04-20T06:31:14.454Z,94
2023-04-20T06:33:40.568Z,93.5
2023-04-20T06:36:06.635Z,92.8
2023-04-20T06:38:32.692Z,92.3
2023-04-20T06:40:58.788Z,91.4
2023-04-20T06:43:24.879Z,90.7
2023-04-20T06:45:50.071Z,90.9
2023-04-20T06:48:16.091Z,91.1
2023-04-20T06:50:42.196Z,91
2023-04-20T06:53:08.290Z,91.3
2023-04-20T06:55:34.365Z,91.6
2023-04-20T06:58:00.485Z,91.5
2023-04-20T07:00:26.609Z,90.7
2023-04-20T07:02:52.720Z,89.4
2023-04-20T07:05:17.838Z,89.3
2023-04-20T07:07:42.906Z,88.2
2023-04-20T07:10:09.007Z,86.3
2023-04-20T07:12:35.083Z,86.3
2023-04-20T07:15:01.176Z,85.9
2023-04-20T07:17:27.312Z,86
2023-04-20T07:19:53.374Z,86.4
2023-04-20T07:22:19.588Z,86
2023-04-20T07:24:45.567Z,85.7
2023-04-20T07:27:11.655Z,85.6
2023-04-20T07:29:37.747Z,85.3
2023-04-20T07:32:03.864Z,85
2023-04-20T07:34:29.972Z,83.8
2023-04-20T07:36:56.050Z,83.6
2023-04-20T07:39:22.140Z,83
2023-04-20T07:41:48.261Z,83.4
2023-04-20T07:44:14.332Z,83.7
2023-04-20T07:46:40.444Z,84.4
2023-04-20T07:49:05.541Z,84.2
2023-04-20T07:51:31.630Z,84.2
2023-04-20T07:53:57.751Z,84.6
2023-04-20T07:56:23.017Z,84.3
2023-04-20T07:58:47.981Z,85.1
2023-04-20T08:01:13.104Z,85.2
2023-04-20T08:03:38.203Z,85.1
2023-04-20T08:06:04.297Z,85.7
2023-04-20T08:08:30.404Z,85.6
2023-04-20T08:10:56.504Z,85.7
2023-04-20T08:13:22.591Z,85.2
2023-04-20T08:15:48.861Z,85.1
2023-04-20T08:18:14.865Z,85.3
2023-04-20T08:20:40.901Z,85.7
2023-04-20T08:23:06.996Z,85.6
2023-04-20T08:25:33.294Z,85.5
2023-04-20T08:27:59.418Z,84.5
2023-04-20T08:30:25.443Z,84.3
2023-04-20T08:32:51.663Z,84
2023-04-20T08:35:16.466Z,84.1
2023-04-20T08:37:42.579Z,84.5
2023-04-20T08:40:08.667Z,83.9
2023-04-20T08:42:34.751Z,84.3
2023-04-20T08:45:00.868Z,84.5
2023-04-20T08:47:26.950Z,84.3
2023-04-20T08:49:53.049Z,84.8
2023-04-20T08:52:18.160Z,85
2023-04-20T08:54:43.293Z,84.7
2023-04-20T08:57:08.395Z,84
2023-04-20T08:59:33.507Z,83.9
2023-04-20T09:01:59.611Z,84.4
2023-04-20T09:04:25.704Z,84.7
2023-04-20T09:06:51.796Z,84.8
2023-04-20T09:09:17.894Z,84
2023-04-20T09:11:43.984Z,84.3
2023-04-20T09:14:10.086Z,84.5
2023-04-20T09:16:36.181Z,84.4
2023-04-20T09:19:02.288Z,84.3
2023-04-20T09:21:28.376Z,84.9
2023-04-20T09:23:54.467Z,84.5
2023-04-20T09:26:20.555Z,83.5
2023-04-20T09:28:46.677Z,84.3
2023-04-20T09:31:11.774Z,84.5
2023-04-20T09:33:37.876Z,83.6
2023-04-20T09:36:03.986Z,84.4
2023-04-20T09:38:30.060Z,84.1
2023-04-20T09:40:56.155Z,83.5
2023-04-20T09:43:22.258Z,82.4
2023-04-20T09:45:48.351Z,82.4
2023-04-20T09:48:13.465Z,81.6
2023-04-20T09:50:38.588Z,81.9
2023-04-20T09:53:04.681Z,81.4
2023-04-20T09:55:29.784Z,82.2
2023-04-20T09:57:55.904Z,83.3
2023-04-20T10:00:22.015Z,84.8
2023-04-20T10:02:48.086Z,86
2023-04-20T10:05:14.179Z,86.9
2023-04-20T10:07:40.269Z,88.1
2023-04-20T10:10:06.370Z,88.2
2023-04-20T10:12:32.463Z,88.7
2023-04-20T10:14:58.547Z,88.3
2023-04-20T10:17:24.663Z,88.7
2023-04-20T10:19:50.743Z,87.4
2023-04-20T10:22:16.853Z,88.7
2023-04-20T10:24:42.928Z,89.2
2023-04-20T10:27:09.164Z,89.7
2023-04-20T10:29:35.163Z,89.7
2023-04-20T10:32:01.241Z,89
2023-04-20T10:34:26.336Z,88.8
2023-04-20T10:36:52.433Z,90
2023-04-20T10:39:18.537Z,88.8
2023-04-20T10:41:44.640Z,88.5
2023-04-20T10:44:10.736Z,88.8
2023-04-20T10:46:36.862Z,89.4
2023-04-20T10:49:02.948Z,87.8
2023-04-20T10:51:29.006Z,88.8
2023-04-20T10:53:54.138Z,88.2
2023-04-20T10:56:19.242Z,88.8
2023-04-20T10:58:44.362Z,89.5
2023-04-20T11:01:09.546Z,88.6
2023-04-20T11:03:34.599Z,88.8
2023-04-20T11:05:59.714Z,87.6
2023-04-20T11:08:25.808Z,88.5
2023-04-20T11:10:51.896Z,88.9
2023-04-20T11:13:18.010Z,88.4
2023-04-20T11:15:44.135Z,87
2023-04-20T11:18:10.191Z,85.7
2023-04-20T11:20:36.284Z,85.9
2023-04-20T11:23:02.393Z,85.3
2023-04-20T11:25:28.475Z,85.6
2023-04-20T11:27:54.567Z,85.3
2023-04-20T11:30:20.707Z,83
2023-04-20T11:32:46.771Z,83.7
2023-04-20T11:35:12.895Z,81.2
2023-04-20T11:37:38.994Z,81.8
2023-04-20T11:40:05.060Z,82.7
2023-04-20T11:42:30.157Z,81.8
2023-04-20T11:44:56.267Z,82.2
2023-04-20T11:47:22.352Z,82.5
2023-04-20T11:49:48.474Z,82.6
2023-04-20T11:52:14.569Z,82.9
2023-04-20T11:54:39.745Z,82.2
2023-04-20T11:57:04.789Z,82.9
2023-04-20T11:59:29.932Z,82.2
2023-04-20T12:01:55.022Z,81.5
2023-04-20T12:04:21.149Z,82.3
2023-04-20T12:06:47.334Z,82.6
2023-04-20T12:09:13.361Z,83.1
2023-04-20T12:11:39.400Z,83.4
2023-04-20T12:14:05.529Z,83.4
2023-04-20T12:16:31.585Z,84.7
2023-04-20T12:18:57.789Z,84.1
2023-04-20T12:21:23.972Z,84.6
2023-04-20T12:23:49.990Z,84.5
2023-04-20T12:26:16.078Z,84.9
2023-04-20T12:28:42.104Z,83.8
2023-04-20T12:31:08.270Z,83.8
2023-04-20T12:33:33.322Z,84.2
2023-04-20T12:35:59.398Z,84.1
2023-04-20T12:38:25.485Z,85.4
2023-04-20T12:40:51.569Z,85.6
2023-04-20T12:43:17.662Z,85.1
2023-04-20T12:45:43.753Z,84.3
2023-04-20T12:48:09.861Z,85.3
2023-04-20T12:50:34.990Z,85.5
2023-04-20T12:53:00.120Z,85
2023-04-20T12:55:25.208Z,85.3
2023-04-20T12:57:50.318Z,85.1
2023-04-20T13:00:16.424Z,84.7
2023-04-20T13:02:41.546Z,84.8
2023-04-20T13:05:06.650Z,84.8
2023-04-20T13:07:32.733Z,83.8
2023-04-20T13:09:58.837Z,84.8
2023-04-20T13:12:24.948Z,85.2
2023-04-20T13:14:51.037Z,85.3
2023-04-20T13:17:17.145Z,85.8
2023-04-20T13:19:43.391Z,87.2
2023-04-20T13:22:09.328Z,86.1
2023-04-20T13:24:35.482Z,86.3
2023-04-20T13:27:01.496Z,86
2023-04-20T13:29:27.752Z,86.6
2023-04-20T13:31:53.696Z,87.6
2023-04-20T13:34:19.792Z,87.7
2023-04-20T13:36:45.041Z,88.3
2023-04-20T13:39:11.109Z,88.2
2023-04-20T13:41:37.096Z,88.7
2023-04-20T13:44:03.288Z,88.5
2023-04-20T13:46:29.322Z,89.8
2023-04-20T13:48:55.471Z,90.1
2023-04-20T13:51:21.495Z,89.9
2023-04-20T13:53:46.601Z,91
2023-04-20T13:56:11.756Z,90.6
2023-04-20T13:58:36.845Z,90.5
2023-04-20T14:01:01.959Z,90.5
2023-04-20T14:03:28.064Z,89.9
2023-04-20T14:05:54.137Z,91.2
2023-04-20T14:08:20.284Z,90.8
2023-04-20T14:10:46.337Z,91
2023-04-20T14:13:12.448Z,91.3
2023-04-20T14:15:38.525Z,91.6
2023-04-20T14:18:04.613Z,91.5
2023-04-20T14:20:30.768Z,92.1
2023-04-20T14:22:56.800Z,92.3
2023-04-20T14:25:22.924Z,92.6
2023-04-20T14:27:49.005Z,92.6
2023-04-20T14:30:15.109Z,93.2
2023-04-20T14:32:40.209Z,92.9
2023-04-20T14:35:06.457Z,93.4
2023-04-20T14:37:32.554Z,94.1
2023-04-20T14:39:58.632Z,94.8
2023-04-20T14:42:24.593Z,94.4
2023-04-20T14:44:50.705Z,95.3
2023-04-20T14:47:16.786Z,95.7
2023-04-20T14:49:41.961Z,95.6
2023-04-20T14:52:07.049Z,95.6
2023-04-20T14:54:33.115Z,95.2
2023-04-20T14:56:59.216Z,95.7
2023-04-20T14:59:25.313Z,95.7
2023-04-20T15:01:51.405Z,96.1
2023-04-20T15:04:17.530Z,96.8
2023-04-20T15:06:43.630Z,97
2023-04-20T15:09:09.694Z,97.2
2023-04-20T15:11:35.851Z,97.2
2023-04-20T15:14:01.915Z,97.5
2023-04-20T15:16:28.017Z,97.5
2023-04-20T15:18:54.085Z,97.9
2023-04-20T15:21:20.176Z,98.1
2023-04-20T15:23:45.341Z,98.2
2023-04-20T15:26:11.369Z,98.3
2023-04-20T15:28:37.479Z,98.6
2023-04-20T15:31:03.593Z,98.6
2023-04-20T15:33:29.702Z,98.5
2023-04-20T15:35:55.772Z,98.8
2023-04-20T15:38:21.862Z,98.8
2023-04-20T15:40:46.997Z,99.1
2023-04-20T15:43:12.085Z,98.9
2023-04-20T15:45:37.203Z,98.7
2023-04-20T15:48:02.349Z,98.8
2023-04-20T15:50:28.436Z,98.7
2023-04-20T15:52:54.588Z,99
2023-04-20T15:55:20.611Z,99.1
2023-04-20T15:57:46.763Z,99.2
2023-04-20T16:00:12.962Z,99.5
2023-04-20T16:02:39.002Z,99.9
2023-04-20T16:05:04.983Z,99.8
2023-04-20T16:07:31.176Z,99.5
2023-04-20T16:09:57.322Z,99.3
2023-04-20T16:12:23.348Z,99.6
2023-04-20T16:14:49.543Z,99.3
2023-04-20T16:17:15.624Z,99.7
2023-04-20T16:19:40.659Z,100
2023-04-20T16:22:06.884Z,100
2023-04-20T16:24:33.224Z,100
2023-04-20T16:26:58.903Z,100
2023-04-20T16:29:25.088Z,100
2023-04-20T16:31:51.184Z,100
2023-04-20T16:34:17.156Z,100
2023-04-20T16:36:42.370Z,100
2023-04-20T16:39:07.399Z,100
2023-04-20T16:41:33.494Z,100
2023-04-20T16:43:59.718Z,100
2023-04-20T16:46:25.739Z,100
2023-04-20T16:48:51.773Z,100
2023-04-20T16:51:17.877Z,100
2023-04-20T16:53:44.099Z,100
2023-04-20T16:56:10.059Z,100
2023-04-20T16:58:36.181Z,100
2023-04-20T17:01:02.244Z,100
2023-04-20T17:03:28.378Z,100
2023-04-20T17:05:54.454Z,100
2023-04-20T17:08:20.565Z,100
2023-04-20T17:10:45.725Z,100
2023-04-20T17:13:11.759Z,100
2023-04-20T17:15:37.842Z,100
2023-04-20T17:18:03.948Z,100
2023-04-20T17:20:30.226Z,100
2023-04-20T17:22:56.140Z,100
2023-04-20T17:25:22.238Z,100
2023-04-20T17:27:47.350Z,100
2023-04-20T17:30:12.457Z,100
2023-04-20T17:32:38.598Z,100
2023-04-20T17:35:04.652Z,100
2023-04-20T17:37:30.763Z,100
2023-04-20T17:39:56.858Z,100
2023-04-20T17:42:22.959Z,100
2023-04-20T17:44:49.039Z,100
2023-04-20T17:47:15.136Z,100
2023-04-20T17:49:41.250Z,100
2023-04-20T17:52:07.325Z,100
2023-04-20T17:54:33.409Z,100
2023-04-20T17:56:59.537Z,100
2023-04-20T17:59:25.632Z,100
2023-04-20T18:01:50.767Z,100
2023-04-20T18:04:15.842Z,100
2023-04-20T18:06:41.938Z,100
2023-04-20T18:09:08.057Z,100
2023-04-20T18:11:34.135Z,100
2023-04-20T18:14:00.221Z,100
2023-04-20T18:16:26.375Z,100
2023-04-20T18:18:51.457Z,100
2023-04-20T18:21:17.660Z,100
2023-04-20T18:23:43.757Z,100
2023-04-20T18:26:09.850Z,100
2023-04-20T18:28:35.944Z,100
2023-04-20T18:31:02.095Z,100
2023-04-20T18:33:28.141Z,100
2023-04-20T18:35:54.285Z,100
2023-04-20T18:38:20.371Z,100
2023-04-20T18:40:46.442Z,100
2023-04-20T18:43:12.551Z,100
2023-04-20T18:45:38.694Z,100
2023-04-20T18:48:04.771Z,100
2023-04-20T18:50:30.835Z,100
2023-04-20T18:52:55.989Z,100
2023-04-20T18:55:22.029Z,100
2023-04-20T18:57:48.128Z,100
2023-04-20T19:00:14.285Z,100
2023-04-20T19:02:40.377Z,100
2023-04-20T19:05:06.521Z,100
2023-04-20T19:07:32.544Z,100
2023-04-20T19:09:58.675Z,100
2023-04-20T19:12:24.698Z,100
2023-04-20T19:14:50.816Z,100
2023-04-20T19:17:16.905Z,100
2023-04-20T19:19:43.000Z,100
2023-04-20T19:22:09.136Z,100
2023-04-20T19:24:35.212Z,100
2023-04-20T19:27:01.307Z,100
2023-04-20T19:29:26.388Z,100
2023-04-20T19:31:52.490Z,100
2023-04-20T19:34:18.584Z,100
2023-04-20T19:36:44.813Z,100
2023-04-20T19:39:10.791Z,100
2023-04-20T19:41:36.885Z,100
2023-04-20T19:44:02.965Z,100
2023-04-20T19:46:29.103Z,100
2023-04-20T19:48:55.171Z,100
2023-04-20T19:51:21.254Z,100
2023-04-20T19:53:47.375Z,100
2023-04-20T19:56:13.478Z,100
2023-04-20T19:58:39.587Z,100
2023-04-20T20:01:04.693Z,100
2023-04-20T20:03:30.769Z,100
2023-04-20T20:05:56.851Z,100
2023-04-20T20:08:22.933Z,100
2023-04-20T20:10:49.094Z,100
2023-04-20T20:13:15.141Z,100
2023-04-20T20:15:41.252Z,100
2023-04-20T20:18:07.552Z,100
2023-04-20T20:20:33.509Z,100
2023-04-20T20:22:59.514Z,100
2023-04-20T20:25:25.632Z,100
2023-04-20T20:27:51.698Z,100
2023-04-20T20:30:17.843Z,100
2023-04-20T20:32:43.888Z,100
2023-04-20T20:35:09.992Z,100
2023-04-20T20:37:36.172Z,100
2023-04-20T20:40:01.258Z,100
2023-04-20T20:42:27.309Z,100
2023-04-20T20:44:53.376Z,100
2023-04-20T20:47:19.567Z,100
2023-04-20T20:49:45.573Z,100
2023-04-20T20:52:11.685Z,100
2023-04-20T20:54:37.810Z,100
2023-04-20T20:57:03.883Z,100
2023-04-20T20:59:30.031Z,100
2023-04-20T21:01:56.065Z,100
2023-04-20T21:04:22.225Z,100
2023-04-20T21:06:48.259Z,100
2023-04-20T21:09:14.359Z,100
2023-04-20T21:11:39.490Z,100
2023-04-20T21:14:05.569Z,100
2023-04-20T21:16:31.681Z,100
2023-04-20T21:18:57.759Z,100
2023-04-20T21:21:23.856Z,100
2023-04-20T21:23:49.949Z,100
2023-04-20T21:26:16.052Z,100
2023-04-20T21:28:42.171Z,100
2023-04-20T21:31:08.240Z,100
2023-04-20T21:33:34.337Z,100
2023-04-20T21:36:00.426Z,100
2023-04-20T21:38:26.532Z,100
2023-04-20T21:40:52.609Z,100
2023-04-20T21:43:18.702Z,100
2023-04-20T21:45:44.828Z,100
2023-04-20T21:48:10.928Z,100
2023-04-20T21:50:36.997Z,100
2023-04-20T21:53:03.105Z,100
2023-04-20T21:55:29.191Z,100
2023-04-20T21:57:55.281Z,100
2023-04-20T22:00:21.388Z,100
2023-04-20T22:02:47.472Z,100
2023-04-20T22:05:13.581Z,100
2023-04-20T22:07:39.691Z,100
2023-04-20T22:10:05.773Z,100
2023-04-20T22:12:31.879Z,100
2023-04-20T22:14:57.964Z,100
2023-04-20T22:17:24.133Z,100
2023-04-20T22:19:49.178Z,100
2023-04-20T22:22:15.259Z,100
2023-04-20T22:24:41.368Z,100
2023-04-20T22:27:07.451Z,100
2023-04-20T22:29:33.555Z,100
2023-04-20T22:31:59.659Z,100
2023-04-20T22:34:25.749Z,100
2023-04-20T22:36:51.863Z,100
2023-04-20T22:39:17.929Z,100
2023-04-20T22:41:44.038Z,100
2023-04-20T22:44:10.114Z,100
2023-04-20T22:46:36.228Z,100
2023-04-20T22:51:28.424Z,100
2023-04-20T22:53:54.511Z,100
2023-04-20T22:56:20.619Z,100
2023-04-20T22:58:46.713Z,100
2023-04-20T23:01:12.811Z,100
2023-04-20T23:06:04.996Z,100
2023-04-20T23:08:31.087Z,100
2023-04-20T23:10:56.210Z,100
2023-04-20T23:13:22.287Z,100
2023-04-20T23:15:48.399Z,100
2023-04-20T23:18:14.488Z,100
2023-04-20T23:20:40.587Z,100
2023-04-20T23:23:06.682Z,100
2023-04-20T23:25:32.773Z,100
2023-04-20T23:27:58.872Z,100
2023-04-20T23:30:24.961Z,100
2023-04-20T23:32:51.062Z,100
2023-04-20T23:35:17.153Z,100
2023-04-20T23:37:43.314Z,100
2023-04-20T23:40:09.416Z,100
2023-04-20T23:42:34.464Z,100
2023-04-20T23:45:00.551Z,100
2023-04-20T23:47:26.647Z,100
2023-04-20T23:49:52.741Z,100
2023-04-20T23:52:18.832Z,100
2023-04-20T23:54:44.938Z,100
2023-04-20T23:57:11.046Z,100
2023-04-20T23:59:37.140Z,100
